sensor_id;sensor_type;location;lat;lon;timestamp;temperature;humidity
9537;DHT22;4807;48.024;11.726;2023-05-15T00:01:41;9.50;99.90
9537;DHT22;4807;48.024;11.726;2023-05-15T00:04:49;9.50;99.90
9537;DHT22;4807;48.024;11.726;2023-05-15T00:07:58;9.50;99.90
9537;DHT22;4807;48.024;11.726;2023-05-15T00:11:06;9.60;99.90
9537;DHT22;4807;48.024;11.726;2023-05-15T00:14:15;9.60;99.90
9537;DHT22;4807;48.024;11.726;2023-05-15T00:17:25;9.70;99.90
9537;DHT22;4807;48.024;11.726;2023-05-15T00:20:34;9.70;99.90
9537;DHT22;4807;48.024;11.726;2023-05-15T00:23:43;9.70;99.90
9537;DHT22;4807;48.024;11.726;2023-05-15T00:26:53;9.80;99.90
9537;DHT22;4807;48.024;11.726;2023-05-15T00:30:02;9.80;99.90
9537;DHT22;4807;48.024;11.726;2023-05-15T00:33:13;9.80;99.90
9537;DHT22;4807;48.024;11.726;2023-05-15T00:36:22;9.80;99.90
9537;DHT22;4807;48.024;11.726;2023-05-15T00:39:31;9.80;99.90
9537;DHT22;4807;48.024;11.726;2023-05-15T00:42:41;9.80;99.90
9537;DHT22;4807;48.024;11.726;2023-05-15T00:45:51;9.80;99.90
9537;DHT22;4807;48.024;11.726;2023-05-15T00:49:02;9.70;99.90
9537;DHT22;4807;48.024;11.726;2023-05-15T00:52:13;9.70;99.90
9537;DHT22;4807;48.024;11.726;2023-05-15T00:55:22;9.70;99.90
9537;DHT22;4807;48.024;11.726;2023-05-15T00:58:33;9.70;99.90
9537;DHT22;4807;48.024;11.726;2023-05-15T01:01:43;9.70;99.90
9537;DHT22;4807;48.024;11.726;2023-05-15T01:04:54;9.70;99.90
9537;DHT22;4807;48.024;11.726;2023-05-15T01:08:08;9.70;99.90
9537;DHT22;4807;48.024;11.726;2023-05-15T01:11:26;9.70;99.90
9537;DHT22;4807;48.024;11.726;2023-05-15T01:14:42;9.80;99.90
9537;DHT22;4807;48.024;11.726;2023-05-15T01:17:50;9.70;99.90
9537;DHT22;4807;48.024;11.726;2023-05-15T01:21:25;9.60;99.90
9537;DHT22;4807;48.024;11.726;2023-05-15T01:25:02;9.70;99.90
9537;DHT22;4807;48.024;11.726;2023-05-15T01:28:35;9.70;99.90
9537;DHT22;4807;48.024;11.726;2023-05-15T01:31:52;9.70;99.90
9537;DHT22;4807;48.024;11.726;2023-05-15T01:35:09;9.70;99.90
9537;DHT22;4807;48.024;11.726;2023-05-15T01:38:29;9.70;99.90
9537;DHT22;4807;48.024;11.726;2023-05-15T01:41:48;9.80;99.90
9537;DHT22;4807;48.024;11.726;2023-05-15T01:45:04;9.70;99.90
9537;DHT22;4807;48.024;11.726;2023-05-15T01:48:18;9.70;99.90
9537;DHT22;4807;48.024;11.726;2023-05-15T01:51:29;9.70;99.90
9537;DHT22;4807;48.024;11.726;2023-05-15T01:54:41;9.80;99.90
9537;DHT22;4807;48.024;11.726;2023-05-15T01:57:51;9.80;99.90
9537;DHT22;4807;48.024;11.726;2023-05-15T02:01:04;9.90;99.90
9537;DHT22;4807;48.024;11.726;2023-05-15T02:04:17;9.80;99.90
9537;DHT22;4807;48.024;11.726;2023-05-15T02:07:27;9.90;99.90
9537;DHT22;4807;48.024;11.726;2023-05-15T02:10:36;11.20;99.90
9537;DHT22;4807;48.024;11.726;2023-05-15T02:16:55;11.00;99.90
9537;DHT22;4807;48.024;11.726;2023-05-15T02:20:05;8.90;99.90
9537;DHT22;4807;48.024;11.726;2023-05-15T02:26:34;9.50;99.90
9537;DHT22;4807;48.024;11.726;2023-05-15T02:30:10;9.40;99.90
9537;DHT22;4807;48.024;11.726;2023-05-15T02:33:37;9.40;99.90
9537;DHT22;4807;48.024;11.726;2023-05-15T02:36:53;9.40;99.90
9537;DHT22;4807;48.024;11.726;2023-05-15T15:54:13;12.40;99.90
9537;DHT22;4807;48.024;11.726;2023-05-15T15:57:21;12.40;99.90
9537;DHT22;4807;48.024;11.726;2023-05-15T16:00:30;12.20;99.90
9537;DHT22;4807;48.024;11.726;2023-05-15T16:03:40;12.00;99.90
9537;DHT22;4807;48.024;11.726;2023-05-15T16:06:48;11.80;99.90
9537;DHT22;4807;48.024;11.726;2023-05-15T16:09:56;11.70;99.90
9537;DHT22;4807;48.024;11.726;2023-05-15T16:13:18;11.60;99.90
9537;DHT22;4807;48.024;11.726;2023-05-15T16:16:27;11.70;99.90
9537;DHT22;4807;48.024;11.726;2023-05-15T16:19:36;11.90;99.90
9537;DHT22;4807;48.024;11.726;2023-05-15T16:22:45;12.10;99.90
9537;DHT22;4807;48.024;11.726;2023-05-15T16:25:53;12.20;99.90
9537;DHT22;4807;48.024;11.726;2023-05-15T16:29:02;12.40;99.90
9537;DHT22;4807;48.024;11.726;2023-05-15T16:32:11;12.40;99.90
9537;DHT22;4807;48.024;11.726;2023-05-15T16:35:22;12.50;99.90
9537;DHT22;4807;48.024;11.726;2023-05-15T16:38:31;12.40;99.90
9537;DHT22;4807;48.024;11.726;2023-05-15T16:41:39;12.40;99.90
9537;DHT22;4807;48.024;11.726;2023-05-15T16:44:48;12.50;99.90
9537;DHT22;4807;48.024;11.726;2023-05-15T16:48:00;12.40;99.90
9537;DHT22;4807;48.024;11.726;2023-05-15T16:51:11;12.40;99.90
9537;DHT22;4807;48.024;11.726;2023-05-15T16:54:20;12.50;99.90
9537;DHT22;4807;48.024;11.726;2023-05-15T16:57:29;12.50;99.90
9537;DHT22;4807;48.024;11.726;2023-05-15T17:00:38;12.60;99.90
9537;DHT22;4807;48.024;11.726;2023-05-15T17:03:48;12.70;99.90
9537;DHT22;4807;48.024;11.726;2023-05-15T17:07:00;12.70;99.90
9537;DHT22;4807;48.024;11.726;2023-05-15T17:10:10;12.80;99.90
9537;DHT22;4807;48.024;11.726;2023-05-15T17:13:19;12.80;99.90
9537;DHT22;4807;48.024;11.726;2023-05-15T17:16:29;13.30;99.90
9537;DHT22;4807;48.024;11.726;2023-05-15T17:19:38;13.40;99.90
9537;DHT22;4807;48.024;11.726;2023-05-15T17:22:48;15.20;99.90
9537;DHT22;4807;48.024;11.726;2023-05-15T17:25:57;16.90;99.90
9537;DHT22;4807;48.024;11.726;2023-05-15T17:29:05;17.30;99.90
9537;DHT22;4807;48.024;11.726;2023-05-15T17:32:14;16.60;99.90
9537;DHT22;4807;48.024;11.726;2023-05-15T17:35:24;15.60;99.90
9537;DHT22;4807;48.024;11.726;2023-05-15T17:38:34;14.90;99.90
9537;DHT22;4807;48.024;11.726;2023-05-15T17:41:43;13.80;99.90
9537;DHT22;4807;48.024;11.726;2023-05-15T17:44:52;13.80;99.90
9537;DHT22;4807;48.024;11.726;2023-05-15T17:48:02;13.30;99.90
9537;DHT22;4807;48.024;11.726;2023-05-15T17:51:11;13.00;99.90
9537;DHT22;4807;48.024;11.726;2023-05-15T17:54:21;12.90;99.90
9537;DHT22;4807;48.024;11.726;2023-05-15T17:57:30;12.50;99.90
9537;DHT22;4807;48.024;11.726;2023-05-15T18:00:38;12.20;99.90
9537;DHT22;4807;48.024;11.726;2023-05-15T18:03:47;11.90;99.90
9537;DHT22;4807;48.024;11.726;2023-05-15T18:06:56;11.80;99.90
9537;DHT22;4807;48.024;11.726;2023-05-15T18:10:07;11.70;99.90
9537;DHT22;4807;48.024;11.726;2023-05-15T18:13:16;11.40;99.90
9537;DHT22;4807;48.024;11.726;2023-05-15T18:16:25;11.20;99.90
9537;DHT22;4807;48.024;11.726;2023-05-15T18:19:35;11.00;99.90
9537;DHT22;4807;48.024;11.726;2023-05-15T18:22:45;10.90;99.90
9537;DHT22;4807;48.024;11.726;2023-05-15T18:25:55;10.90;99.90
9537;DHT22;4807;48.024;11.726;2023-05-15T18:29:03;11.00;99.90
9537;DHT22;4807;48.024;11.726;2023-05-15T18:32:12;11.00;99.90
9537;DHT22;4807;48.024;11.726;2023-05-15T18:35:21;10.80;99.90
9537;DHT22;4807;48.024;11.726;2023-05-15T18:38:30;10.70;99.90
9537;DHT22;4807;48.024;11.726;2023-05-15T18:41:41;10.70;99.90
9537;DHT22;4807;48.024;11.726;2023-05-15T18:44:50;10.60;99.90
9537;DHT22;4807;48.024;11.726;2023-05-15T18:47:59;10.50;99.90
9537;DHT22;4807;48.024;11.726;2023-05-15T18:51:08;10.30;99.90
9537;DHT22;4807;48.024;11.726;2023-05-15T18:54:17;10.30;99.90
9537;DHT22;4807;48.024;11.726;2023-05-15T18:57:27;10.10;99.90
9537;DHT22;4807;48.024;11.726;2023-05-15T19:00:36;10.00;99.90
9537;DHT22;4807;48.024;11.726;2023-05-15T19:03:45;9.80;99.90
9537;DHT22;4807;48.024;11.726;2023-05-15T19:06:54;9.60;99.90
9537;DHT22;4807;48.024;11.726;2023-05-15T19:10:03;9.50;99.90
9537;DHT22;4807;48.024;11.726;2023-05-15T19:13:14;9.20;99.90
9537;DHT22;4807;48.024;11.726;2023-05-15T19:16:23;9.40;99.90
9537;DHT22;4807;48.024;11.726;2023-05-15T19:19:35;9.30;99.90
9537;DHT22;4807;48.024;11.726;2023-05-15T19:22:43;9.30;99.90
9537;DHT22;4807;48.024;11.726;2023-05-15T19:25:52;9.20;99.90
9537;DHT22;4807;48.024;11.726;2023-05-15T19:29:02;9.30;99.90
9537;DHT22;4807;48.024;11.726;2023-05-15T19:32:11;9.20;99.90
9537;DHT22;4807;48.024;11.726;2023-05-15T19:35:19;9.30;99.90
9537;DHT22;4807;48.024;11.726;2023-05-15T19:38:28;9.30;99.90
9537;DHT22;4807;48.024;11.726;2023-05-15T19:41:37;9.30;99.90
9537;DHT22;4807;48.024;11.726;2023-05-15T19:44:46;9.30;99.90
9537;DHT22;4807;48.024;11.726;2023-05-15T19:47:55;9.20;99.90
9537;DHT22;4807;48.024;11.726;2023-05-15T19:51:04;9.10;99.90
9537;DHT22;4807;48.024;11.726;2023-05-15T19:54:13;9.10;99.90
9537;DHT22;4807;48.024;11.726;2023-05-15T19:57:22;9.00;99.90
9537;DHT22;4807;48.024;11.726;2023-05-15T20:00:31;9.00;99.90
9537;DHT22;4807;48.024;11.726;2023-05-15T20:03:39;8.90;99.90
9537;DHT22;4807;48.024;11.726;2023-05-15T20:06:48;9.00;99.90
9537;DHT22;4807;48.024;11.726;2023-05-15T20:09:57;8.80;99.90
9537;DHT22;4807;48.024;11.726;2023-05-15T20:13:08;8.80;99.90
9537;DHT22;4807;48.024;11.726;2023-05-15T20:16:18;8.70;99.90
9537;DHT22;4807;48.024;11.726;2023-05-15T20:19:28;8.70;99.90
9537;DHT22;4807;48.024;11.726;2023-05-15T20:22:43;8.80;99.90
9537;DHT22;4807;48.024;11.726;2023-05-15T20:25:51;8.70;99.90
9537;DHT22;4807;48.024;11.726;2023-05-15T20:29:00;8.70;99.90
9537;DHT22;4807;48.024;11.726;2023-05-15T20:32:10;8.90;99.90
9537;DHT22;4807;48.024;11.726;2023-05-15T20:35:19;8.90;99.90
9537;DHT22;4807;48.024;11.726;2023-05-15T20:38:29;8.80;99.90
9537;DHT22;4807;48.024;11.726;2023-05-15T20:41:39;8.90;99.90
9537;DHT22;4807;48.024;11.726;2023-05-15T20:44:49;9.00;99.90
9537;DHT22;4807;48.024;11.726;2023-05-15T20:47:59;9.20;99.90
9537;DHT22;4807;48.024;11.726;2023-05-15T20:51:09;9.10;99.90
9537;DHT22;4807;48.024;11.726;2023-05-15T20:54:17;9.20;99.90
9537;DHT22;4807;48.024;11.726;2023-05-15T20:57:25;9.20;99.90
9537;DHT22;4807;48.024;11.726;2023-05-15T21:00:33;9.20;99.90
9537;DHT22;4807;48.024;11.726;2023-05-15T21:03:43;9.20;99.90
9537;DHT22;4807;48.024;11.726;2023-05-15T21:06:52;9.30;99.90
9537;DHT22;4807;48.024;11.726;2023-05-15T21:10:00;9.30;99.90
9537;DHT22;4807;48.024;11.726;2023-05-15T21:13:09;9.30;99.90
9537;DHT22;4807;48.024;11.726;2023-05-15T21:16:17;9.40;99.90
9537;DHT22;4807;48.024;11.726;2023-05-15T21:19:27;9.50;99.90
9537;DHT22;4807;48.024;11.726;2023-05-15T21:22:35;9.40;99.90
9537;DHT22;4807;48.024;11.726;2023-05-15T21:25:43;9.40;99.90
9537;DHT22;4807;48.024;11.726;2023-05-15T21:28:52;9.40;99.90
9537;DHT22;4807;48.024;11.726;2023-05-15T21:32:01;9.40;99.90
9537;DHT22;4807;48.024;11.726;2023-05-15T21:35:12;9.40;99.90
9537;DHT22;4807;48.024;11.726;2023-05-15T21:38:20;9.50;99.90
9537;DHT22;4807;48.024;11.726;2023-05-15T21:41:34;9.50;99.90
9537;DHT22;4807;48.024;11.726;2023-05-15T21:44:42;9.50;99.90
9537;DHT22;4807;48.024;11.726;2023-05-15T21:47:52;10.10;99.90
9537;DHT22;4807;48.024;11.726;2023-05-15T21:51:02;9.40;99.90
9537;DHT22;4807;48.024;11.726;2023-05-15T21:54:10;9.50;99.90
9537;DHT22;4807;48.024;11.726;2023-05-15T21:57:19;9.50;99.90
9537;DHT22;4807;48.024;11.726;2023-05-15T22:00:28;9.50;99.90
9537;DHT22;4807;48.024;11.726;2023-05-15T22:03:36;9.50;99.90
9537;DHT22;4807;48.024;11.726;2023-05-15T22:06:47;9.50;99.90
9537;DHT22;4807;48.024;11.726;2023-05-15T22:09:55;9.60;99.90
9537;DHT22;4807;48.024;11.726;2023-05-15T22:13:04;9.50;99.90
9537;DHT22;4807;48.024;11.726;2023-05-15T22:16:12;9.50;99.90
9537;DHT22;4807;48.024;11.726;2023-05-15T22:22:41;9.60;99.90
9537;DHT22;4807;48.024;11.726;2023-05-15T22:25:49;9.60;99.90
9537;DHT22;4807;48.024;11.726;2023-05-15T22:28:57;9.60;99.90
9537;DHT22;4807;48.024;11.726;2023-05-15T22:32:06;9.70;99.90
9537;DHT22;4807;48.024;11.726;2023-05-15T22:35:14;9.60;99.90
9537;DHT22;4807;48.024;11.726;2023-05-15T22:38:25;9.70;99.90
9537;DHT22;4807;48.024;11.726;2023-05-15T22:41:34;9.70;99.90
9537;DHT22;4807;48.024;11.726;2023-05-15T22:44:42;9.60;99.90
9537;DHT22;4807;48.024;11.726;2023-05-15T22:47:50;9.60;99.90
9537;DHT22;4807;48.024;11.726;2023-05-15T22:50:58;9.60;99.90
9537;DHT22;4807;48.024;11.726;2023-05-15T22:54:08;9.60;99.90
9537;DHT22;4807;48.024;11.726;2023-05-15T22:57:17;9.60;99.90
9537;DHT22;4807;48.024;11.726;2023-05-15T23:00:25;9.60;99.90
9537;DHT22;4807;48.024;11.726;2023-05-15T23:03:33;9.60;99.90
9537;DHT22;4807;48.024;11.726;2023-05-15T23:06:41;9.60;99.90
9537;DHT22;4807;48.024;11.726;2023-05-15T23:09:51;9.60;99.90
9537;DHT22;4807;48.024;11.726;2023-05-15T23:12:59;9.70;99.90
9537;DHT22;4807;48.024;11.726;2023-05-15T23:16:07;9.70;99.90
9537;DHT22;4807;48.024;11.726;2023-05-15T23:19:16;9.80;99.90
9537;DHT22;4807;48.024;11.726;2023-05-15T23:22:24;9.80;99.90
9537;DHT22;4807;48.024;11.726;2023-05-15T23:25:33;9.80;99.90
9537;DHT22;4807;48.024;11.726;2023-05-15T23:28:42;9.80;99.90
9537;DHT22;4807;48.024;11.726;2023-05-15T23:31:50;9.80;99.90
9537;DHT22;4807;48.024;11.726;2023-05-15T23:34:58;9.80;99.90
9537;DHT22;4807;48.024;11.726;2023-05-15T23:38:06;9.80;99.90
9537;DHT22;4807;48.024;11.726;2023-05-15T23:41:16;9.80;99.90
9537;DHT22;4807;48.024;11.726;2023-05-15T23:44:24;9.80;99.90
9537;DHT22;4807;48.024;11.726;2023-05-15T23:47:32;9.70;99.90
9537;DHT22;4807;48.024;11.726;2023-05-15T23:50:40;9.70;99.90
9537;DHT22;4807;48.024;11.726;2023-05-15T23:53:49;9.70;99.90
9537;DHT22;4807;48.024;11.726;2023-05-15T23:56:58;9.70;99.90
